sensor_id;sensor_type;location;lat;lon;timestamp;P1;durP1;ratioP1;P2;durP2;ratioP2
7045;SDS011;3564;53.326;10.356;2023-03-31T00:02:17;11.17;;;3.53;;
7045;SDS011;3564;53.326;10.356;2023-03-31T00:04:46;9.70;;;3.40;;
7045;SDS011;3564;53.326;10.356;2023-03-31T00:07:16;7.63;;;2.80;;
7045;SDS011;3564;53.326;10.356;2023-03-31T00:09:46;8.93;;;3.27;;
7045;SDS011;3564;53.326;10.356;2023-03-31T00:12:13;10.30;;;3.63;;
7045;SDS011;3564;53.326;10.356;2023-03-31T00:14:40;14.17;;;3.53;;
7045;SDS011;3564;53.326;10.356;2023-03-31T00:17:07;12.83;;;3.83;;
7045;SDS011;3564;53.326;10.356;2023-03-31T00:19:34;9.77;;;3.40;;
7045;SDS011;3564;53.326;10.356;2023-03-31T00:22:00;8.63;;;3.03;;
7045;SDS011;3564;53.326;10.356;2023-03-31T00:24:26;9.50;;;2.90;;
7045;SDS011;3564;53.326;10.356;2023-03-31T00:26:56;8.80;;;3.13;;
7045;SDS011;3564;53.326;10.356;2023-03-31T00:29:23;9.17;;;3.10;;
7045;SDS011;3564;53.326;10.356;2023-03-31T00:31:48;11.67;;;3.27;;
7045;SDS011;3564;53.326;10.356;2023-03-31T00:34:14;11.30;;;3.03;;
7045;SDS011;3564;53.326;10.356;2023-03-31T00:36:39;7.80;;;3.20;;
7045;SDS011;3564;53.326;10.356;2023-03-31T00:39:11;11.87;;;3.17;;
7045;SDS011;3564;53.326;10.356;2023-03-31T00:41:39;10.33;;;3.60;;
7045;SDS011;3564;53.326;10.356;2023-03-31T00:46:33;9.93;;;3.00;;
7045;SDS011;3564;53.326;10.356;2023-03-31T00:49:26;8.00;;;3.37;;
7045;SDS011;3564;53.326;10.356;2023-03-31T00:52:09;9.40;;;2.67;;
7045;SDS011;3564;53.326;10.356;2023-03-31T00:54:39;8.73;;;2.93;;
7045;SDS011;3564;53.326;10.356;2023-03-31T00:57:08;10.67;;;3.23;;
7045;SDS011;3564;53.326;10.356;2023-03-31T00:59:36;6.60;;;2.60;;
7045;SDS011;3564;53.326;10.356;2023-03-31T01:02:04;7.97;;;3.57;;
7045;SDS011;3564;53.326;10.356;2023-03-31T01:04:32;11.83;;;3.67;;
7045;SDS011;3564;53.326;10.356;2023-03-31T01:07:03;9.97;;;3.50;;
7045;SDS011;3564;53.326;10.356;2023-03-31T01:09:47;7.47;;;3.80;;
7045;SDS011;3564;53.326;10.356;2023-03-31T01:12:14;11.23;;;4.30;;
7045;SDS011;3564;53.326;10.356;2023-03-31T01:14:41;9.60;;;4.47;;
7045;SDS011;3564;53.326;10.356;2023-03-31T01:17:07;11.63;;;4.17;;
7045;SDS011;3564;53.326;10.356;2023-03-31T01:47:03;8.77;;;4.00;;
7045;SDS011;3564;53.326;10.356;2023-03-31T01:52:39;6.77;;;4.53;;
7045;SDS011;3564;53.326;10.356;2023-03-31T01:55:23;9.40;;;4.47;;
7045;SDS011;3564;53.326;10.356;2023-03-31T01:57:54;9.23;;;4.40;;
7045;SDS011;3564;53.326;10.356;2023-03-31T02:00:42;10.83;;;4.40;;
7045;SDS011;3564;53.326;10.356;2023-03-31T02:03:25;8.63;;;4.20;;
7045;SDS011;3564;53.326;10.356;2023-03-31T02:06:19;11.50;;;4.93;;
7045;SDS011;3564;53.326;10.356;2023-03-31T02:09:02;11.33;;;4.87;;
7045;SDS011;3564;53.326;10.356;2023-03-31T02:11:33;9.80;;;4.40;;
7045;SDS011;3564;53.326;10.356;2023-03-31T02:13:59;13.63;;;4.77;;
7045;SDS011;3564;53.326;10.356;2023-03-31T02:16:29;9.80;;;4.10;;
7045;SDS011;3564;53.326;10.356;2023-03-31T02:18:57;12.67;;;4.83;;
7045;SDS011;3564;53.326;10.356;2023-03-31T02:21:28;9.43;;;4.60;;
7045;SDS011;3564;53.326;10.356;2023-03-31T02:23:56;9.50;;;5.37;;
7045;SDS011;3564;53.326;10.356;2023-03-31T02:26:27;7.70;;;4.47;;
7045;SDS011;3564;53.326;10.356;2023-03-31T02:29:00;9.57;;;4.43;;
7045;SDS011;3564;53.326;10.356;2023-03-31T02:31:27;10.20;;;4.83;;
7045;SDS011;3564;53.326;10.356;2023-03-31T02:34:15;9.40;;;5.03;;
7045;SDS011;3564;53.326;10.356;2023-03-31T02:36:41;14.53;;;4.50;;
7045;SDS011;3564;53.326;10.356;2023-03-31T02:39:11;8.83;;;5.30;;
7045;SDS011;3564;53.326;10.356;2023-03-31T02:41:39;11.00;;;4.83;;
7045;SDS011;3564;53.326;10.356;2023-03-31T02:44:07;10.07;;;5.30;;
7045;SDS011;3564;53.326;10.356;2023-03-31T02:46:34;10.00;;;5.67;;
7045;SDS011;3564;53.326;10.356;2023-03-31T02:49:00;13.23;;;5.40;;
7045;SDS011;3564;53.326;10.356;2023-03-31T03:00:18;9.40;;;5.60;;
7045;SDS011;3564;53.326;10.356;2023-03-31T03:03:31;13.87;;;5.93;;
7045;SDS011;3564;53.326;10.356;2023-03-31T03:06:07;8.57;;;5.67;;
7045;SDS011;3564;53.326;10.356;2023-03-31T03:08:46;9.03;;;4.90;;
7045;SDS011;3564;53.326;10.356;2023-03-31T03:14:27;12.30;;;5.57;;
7045;SDS011;3564;53.326;10.356;2023-03-31T03:16:57;10.37;;;5.40;;
7045;SDS011;3564;53.326;10.356;2023-03-31T03:19:49;10.77;;;6.00;;
7045;SDS011;3564;53.326;10.356;2023-03-31T03:22:16;9.97;;;5.80;;
7045;SDS011;3564;53.326;10.356;2023-03-31T03:24:42;10.70;;;6.27;;
7045;SDS011;3564;53.326;10.356;2023-03-31T03:27:08;13.43;;;5.90;;
7045;SDS011;3564;53.326;10.356;2023-03-31T03:29:37;11.03;;;5.90;;
7045;SDS011;3564;53.326;10.356;2023-03-31T03:32:02;12.37;;;6.70;;
7045;SDS011;3564;53.326;10.356;2023-03-31T03:34:28;10.13;;;6.40;;
7045;SDS011;3564;53.326;10.356;2023-03-31T03:36:53;11.13;;;6.53;;
7045;SDS011;3564;53.326;10.356;2023-03-31T03:39:19;13.20;;;6.77;;
7045;SDS011;3564;53.326;10.356;2023-03-31T03:41:45;11.20;;;6.93;;
7045;SDS011;3564;53.326;10.356;2023-03-31T03:44:10;10.07;;;6.80;;
7045;SDS011;3564;53.326;10.356;2023-03-31T03:46:36;17.07;;;7.53;;
7045;SDS011;3564;53.326;10.356;2023-03-31T03:49:02;11.60;;;6.50;;
7045;SDS011;3564;53.326;10.356;2023-03-31T03:51:27;11.27;;;7.17;;
7045;SDS011;3564;53.326;10.356;2023-03-31T03:53:53;11.40;;;6.97;;
7045;SDS011;3564;53.326;10.356;2023-03-31T03:56:19;11.10;;;6.37;;
7045;SDS011;3564;53.326;10.356;2023-03-31T03:58:45;13.73;;;6.97;;
7045;SDS011;3564;53.326;10.356;2023-03-31T04:01:11;13.20;;;7.07;;
7045;SDS011;3564;53.326;10.356;2023-03-31T04:03:38;12.93;;;6.73;;
7045;SDS011;3564;53.326;10.356;2023-03-31T04:06:03;11.77;;;7.40;;
7045;SDS011;3564;53.326;10.356;2023-03-31T04:08:29;14.07;;;6.20;;
7045;SDS011;3564;53.326;10.356;2023-03-31T04:10:55;17.50;;;7.17;;
7045;SDS011;3564;53.326;10.356;2023-03-31T04:13:20;14.33;;;6.30;;
7045;SDS011;3564;53.326;10.356;2023-03-31T04:15:46;11.40;;;6.33;;
7045;SDS011;3564;53.326;10.356;2023-03-31T04:18:14;11.13;;;6.03;;
7045;SDS011;3564;53.326;10.356;2023-03-31T04:20:47;8.30;;;5.57;;
7045;SDS011;3564;53.326;10.356;2023-03-31T04:23:28;13.50;;;6.80;;
7045;SDS011;3564;53.326;10.356;2023-03-31T04:25:54;12.37;;;5.73;;
7045;SDS011;3564;53.326;10.356;2023-03-31T04:28:20;11.20;;;5.60;;
7045;SDS011;3564;53.326;10.356;2023-03-31T04:30:46;11.27;;;5.60;;
7045;SDS011;3564;53.326;10.356;2023-03-31T04:33:13;10.40;;;5.17;;
7045;SDS011;3564;53.326;10.356;2023-03-31T04:35:43;12.13;;;5.90;;
7045;SDS011;3564;53.326;10.356;2023-03-31T04:38:17;11.83;;;5.30;;
7045;SDS011;3564;53.326;10.356;2023-03-31T04:40:45;11.20;;;6.27;;
7045;SDS011;3564;53.326;10.356;2023-03-31T04:43:15;10.43;;;5.77;;
7045;SDS011;3564;53.326;10.356;2023-03-31T04:45:42;12.03;;;5.90;;
7045;SDS011;3564;53.326;10.356;2023-03-31T04:48:10;11.17;;;5.80;;
7045;SDS011;3564;53.326;10.356;2023-03-31T04:50:36;11.40;;;5.80;;
7045;SDS011;3564;53.326;10.356;2023-03-31T04:53:03;8.53;;;5.30;;
7045;SDS011;3564;53.326;10.356;2023-03-31T04:55:29;9.23;;;5.23;;
7045;SDS011;3564;53.326;10.356;2023-03-31T04:57:54;9.73;;;5.20;;
7045;SDS011;3564;53.326;10.356;2023-03-31T05:00:21;12.20;;;4.87;;
7045;SDS011;3564;53.326;10.356;2023-03-31T05:02:48;12.20;;;5.07;;
7045;SDS011;3564;53.326;10.356;2023-03-31T05:05:13;11.53;;;4.77;;
7045;SDS011;3564;53.326;10.356;2023-03-31T05:07:39;9.60;;;4.67;;
7045;SDS011;3564;53.326;10.356;2023-03-31T05:10:05;11.50;;;5.40;;
7045;SDS011;3564;53.326;10.356;2023-03-31T05:12:34;10.43;;;4.50;;
7045;SDS011;3564;53.326;10.356;2023-03-31T05:15:03;12.03;;;5.50;;
7045;SDS011;3564;53.326;10.356;2023-03-31T05:17:33;12.17;;;4.87;;
7045;SDS011;3564;53.326;10.356;2023-03-31T05:20:00;8.47;;;4.57;;
7045;SDS011;3564;53.326;10.356;2023-03-31T05:22:31;12.20;;;4.63;;
7045;SDS011;3564;53.326;10.356;2023-03-31T05:24:59;11.77;;;4.90;;
7045;SDS011;3564;53.326;10.356;2023-03-31T05:27:24;13.07;;;4.77;;
7045;SDS011;3564;53.326;10.356;2023-03-31T05:29:50;10.37;;;4.63;;
7045;SDS011;3564;53.326;10.356;2023-03-31T05:32:16;8.90;;;4.60;;
7045;SDS011;3564;53.326;10.356;2023-03-31T05:34:41;9.63;;;5.30;;
7045;SDS011;3564;53.326;10.356;2023-03-31T05:37:10;8.23;;;4.80;;
7045;SDS011;3564;53.326;10.356;2023-03-31T05:39:35;9.67;;;4.60;;
7045;SDS011;3564;53.326;10.356;2023-03-31T05:42:01;11.40;;;5.10;;
7045;SDS011;3564;53.326;10.356;2023-03-31T05:44:27;12.47;;;5.10;;
7045;SDS011;3564;53.326;10.356;2023-03-31T05:46:53;10.57;;;4.53;;
7045;SDS011;3564;53.326;10.356;2023-03-31T05:49:18;9.27;;;4.63;;
7045;SDS011;3564;53.326;10.356;2023-03-31T05:51:44;8.87;;;4.70;;
7045;SDS011;3564;53.326;10.356;2023-03-31T05:54:10;9.97;;;4.27;;
7045;SDS011;3564;53.326;10.356;2023-03-31T05:56:36;7.70;;;3.93;;
7045;SDS011;3564;53.326;10.356;2023-03-31T05:59:01;9.37;;;4.77;;
7045;SDS011;3564;53.326;10.356;2023-03-31T06:01:27;9.63;;;4.30;;
7045;SDS011;3564;53.326;10.356;2023-03-31T06:03:54;7.70;;;4.70;;
7045;SDS011;3564;53.326;10.356;2023-03-31T06:06:21;9.80;;;4.37;;
7045;SDS011;3564;53.326;10.356;2023-03-31T06:08:46;10.43;;;3.87;;
7045;SDS011;3564;53.326;10.356;2023-03-31T06:11:13;9.60;;;4.47;;
7045;SDS011;3564;53.326;10.356;2023-03-31T06:13:43;8.43;;;4.30;;
7045;SDS011;3564;53.326;10.356;2023-03-31T06:16:11;11.80;;;5.33;;
7045;SDS011;3564;53.326;10.356;2023-03-31T06:18:38;10.07;;;4.20;;
7045;SDS011;3564;53.326;10.356;2023-03-31T06:21:04;7.47;;;3.90;;
7045;SDS011;3564;53.326;10.356;2023-03-31T06:23:32;8.40;;;4.27;;
7045;SDS011;3564;53.326;10.356;2023-03-31T06:26:02;8.23;;;4.17;;
7045;SDS011;3564;53.326;10.356;2023-03-31T06:28:30;8.90;;;4.33;;
7045;SDS011;3564;53.326;10.356;2023-03-31T06:31:15;11.77;;;4.33;;
7045;SDS011;3564;53.326;10.356;2023-03-31T06:33:43;9.23;;;3.80;;
7045;SDS011;3564;53.326;10.356;2023-03-31T06:36:09;8.97;;;4.43;;
7045;SDS011;3564;53.326;10.356;2023-03-31T06:38:38;6.00;;;3.30;;
7045;SDS011;3564;53.326;10.356;2023-03-31T06:41:05;4.53;;;2.90;;
7045;SDS011;3564;53.326;10.356;2023-03-31T06:43:32;8.30;;;3.20;;
7045;SDS011;3564;53.326;10.356;2023-03-31T06:45:58;8.97;;;3.00;;
7045;SDS011;3564;53.326;10.356;2023-03-31T06:48:23;8.97;;;3.70;;
7045;SDS011;3564;53.326;10.356;2023-03-31T06:50:49;8.17;;;3.10;;
7045;SDS011;3564;53.326;10.356;2023-03-31T06:53:15;8.77;;;3.60;;
7045;SDS011;3564;53.326;10.356;2023-03-31T06:55:41;8.53;;;3.57;;
7045;SDS011;3564;53.326;10.356;2023-03-31T06:58:06;8.10;;;3.20;;
7045;SDS011;3564;53.326;10.356;2023-03-31T07:00:35;7.20;;;2.90;;
7045;SDS011;3564;53.326;10.356;2023-03-31T07:03:02;7.70;;;3.17;;
7045;SDS011;3564;53.326;10.356;2023-03-31T07:05:28;6.37;;;2.97;;
7045;SDS011;3564;53.326;10.356;2023-03-31T07:07:55;7.50;;;2.90;;
7045;SDS011;3564;53.326;10.356;2023-03-31T07:10:22;9.10;;;2.73;;
7045;SDS011;3564;53.326;10.356;2023-03-31T07:12:49;6.93;;;2.93;;
7045;SDS011;3564;53.326;10.356;2023-03-31T07:15:15;6.93;;;2.53;;
7045;SDS011;3564;53.326;10.356;2023-03-31T07:17:40;4.37;;;2.50;;
7045;SDS011;3564;53.326;10.356;2023-03-31T07:20:07;6.57;;;2.50;;
7045;SDS011;3564;53.326;10.356;2023-03-31T07:22:38;7.83;;;2.40;;
7045;SDS011;3564;53.326;10.356;2023-03-31T07:25:08;7.30;;;2.47;;
7045;SDS011;3564;53.326;10.356;2023-03-31T07:27:36;7.13;;;2.57;;
7045;SDS011;3564;53.326;10.356;2023-03-31T07:30:06;7.03;;;2.63;;
7045;SDS011;3564;53.326;10.356;2023-03-31T07:32:37;7.87;;;2.70;;
7045;SDS011;3564;53.326;10.356;2023-03-31T07:35:05;5.07;;;2.37;;
7045;SDS011;3564;53.326;10.356;2023-03-31T07:37:37;5.77;;;2.60;;
7045;SDS011;3564;53.326;10.356;2023-03-31T07:40:05;6.77;;;2.53;;
7045;SDS011;3564;53.326;10.356;2023-03-31T07:42:32;5.30;;;2.30;;
7045;SDS011;3564;53.326;10.356;2023-03-31T07:44:59;5.60;;;2.40;;
7045;SDS011;3564;53.326;10.356;2023-03-31T07:47:26;5.33;;;2.10;;
7045;SDS011;3564;53.326;10.356;2023-03-31T07:49:52;6.17;;;1.90;;
7045;SDS011;3564;53.326;10.356;2023-03-31T07:52:18;5.87;;;2.40;;
7045;SDS011;3564;53.326;10.356;2023-03-31T07:54:47;4.40;;;2.13;;
7045;SDS011;3564;53.326;10.356;2023-03-31T07:57:12;5.97;;;2.63;;
7045;SDS011;3564;53.326;10.356;2023-03-31T07:59:41;4.17;;;2.17;;
7045;SDS011;3564;53.326;10.356;2023-03-31T08:02:09;6.73;;;2.57;;
7045;SDS011;3564;53.326;10.356;2023-03-31T08:04:39;6.37;;;2.17;;
7045;SDS011;3564;53.326;10.356;2023-03-31T08:07:06;5.50;;;2.40;;
7045;SDS011;3564;53.326;10.356;2023-03-31T08:09:36;4.67;;;2.40;;
7045;SDS011;3564;53.326;10.356;2023-03-31T08:12:02;5.40;;;2.40;;
7045;SDS011;3564;53.326;10.356;2023-03-31T08:14:29;6.83;;;2.60;;
7045;SDS011;3564;53.326;10.356;2023-03-31T08:16:54;5.23;;;2.70;;
7045;SDS011;3564;53.326;10.356;2023-03-31T08:19:22;4.37;;;2.27;;
7045;SDS011;3564;53.326;10.356;2023-03-31T08:21:48;5.27;;;2.93;;
7045;SDS011;3564;53.326;10.356;2023-03-31T08:24:13;6.60;;;3.07;;
7045;SDS011;3564;53.326;10.356;2023-03-31T08:26:40;4.87;;;2.20;;
7045;SDS011;3564;53.326;10.356;2023-03-31T08:29:05;6.70;;;2.50;;
7045;SDS011;3564;53.326;10.356;2023-03-31T08:31:31;5.27;;;2.30;;
7045;SDS011;3564;53.326;10.356;2023-03-31T08:33:58;4.20;;;1.93;;
7045;SDS011;3564;53.326;10.356;2023-03-31T08:36:24;4.87;;;2.73;;
7045;SDS011;3564;53.326;10.356;2023-03-31T08:38:51;5.23;;;2.10;;
7045;SDS011;3564;53.326;10.356;2023-03-31T08:41:33;7.00;;;2.57;;
7045;SDS011;3564;53.326;10.356;2023-03-31T08:44:13;5.90;;;2.63;;
7045;SDS011;3564;53.326;10.356;2023-03-31T08:46:50;5.27;;;2.13;;
7045;SDS011;3564;53.326;10.356;2023-03-31T08:49:19;5.63;;;2.67;;
7045;SDS011;3564;53.326;10.356;2023-03-31T08:51:48;8.00;;;2.40;;
7045;SDS011;3564;53.326;10.356;2023-03-31T08:56:56;4.47;;;2.30;;
7045;SDS011;3564;53.326;10.356;2023-03-31T08:59:34;5.70;;;2.17;;
7045;SDS011;3564;53.326;10.356;2023-03-31T09:02:22;3.63;;;2.13;;
7045;SDS011;3564;53.326;10.356;2023-03-31T09:05:16;4.80;;;2.20;;
7045;SDS011;3564;53.326;10.356;2023-03-31T09:07:57;2.70;;;1.90;;
7045;SDS011;3564;53.326;10.356;2023-03-31T09:13:46;5.87;;;2.37;;
7045;SDS011;3564;53.326;10.356;2023-03-31T09:19:00;4.97;;;2.20;;
7045;SDS011;3564;53.326;10.356;2023-03-31T09:21:30;4.50;;;2.30;;
7045;SDS011;3564;53.326;10.356;2023-03-31T09:24:06;3.77;;;1.97;;
7045;SDS011;3564;53.326;10.356;2023-03-31T09:26:47;6.03;;;1.80;;
7045;SDS011;3564;53.326;10.356;2023-03-31T09:32:20;3.23;;;1.90;;
7045;SDS011;3564;53.326;10.356;2023-03-31T09:34:51;5.37;;;1.90;;
7045;SDS011;3564;53.326;10.356;2023-03-31T09:37:42;4.63;;;1.70;;
7045;SDS011;3564;53.326;10.356;2023-03-31T09:40:28;3.90;;;1.80;;
7045;SDS011;3564;53.326;10.356;2023-03-31T09:43:09;4.33;;;1.87;;
7045;SDS011;3564;53.326;10.356;2023-03-31T09:46:30;4.23;;;2.10;;
7045;SDS011;3564;53.326;10.356;2023-03-31T09:49:14;3.40;;;2.30;;
7045;SDS011;3564;53.326;10.356;2023-03-31T09:51:44;5.17;;;1.80;;
7045;SDS011;3564;53.326;10.356;2023-03-31T09:54:23;4.13;;;1.60;;
7045;SDS011;3564;53.326;10.356;2023-03-31T09:56:53;3.20;;;1.70;;
7045;SDS011;3564;53.326;10.356;2023-03-31T09:59:29;3.83;;;1.60;;
7045;SDS011;3564;53.326;10.356;2023-03-31T10:01:57;3.53;;;1.83;;
7045;SDS011;3564;53.326;10.356;2023-03-31T10:04:27;2.70;;;1.63;;
7045;SDS011;3564;53.326;10.356;2023-03-31T10:06:56;2.00;;;1.53;;
7045;SDS011;3564;53.326;10.356;2023-03-31T10:09:30;4.27;;;1.80;;
7045;SDS011;3564;53.326;10.356;2023-03-31T10:12:01;3.73;;;1.50;;
7045;SDS011;3564;53.326;10.356;2023-03-31T10:14:37;2.27;;;1.77;;
7045;SDS011;3564;53.326;10.356;2023-03-31T10:17:11;3.30;;;2.40;;
7045;SDS011;3564;53.326;10.356;2023-03-31T10:19:52;4.33;;;2.30;;
7045;SDS011;3564;53.326;10.356;2023-03-31T10:23:11;4.37;;;1.93;;
7045;SDS011;3564;53.326;10.356;2023-03-31T10:25:41;7.30;;;2.30;;
7045;SDS011;3564;53.326;10.356;2023-03-31T10:28:10;5.83;;;2.17;;
7045;SDS011;3564;53.326;10.356;2023-03-31T10:30:41;2.67;;;2.17;;
7045;SDS011;3564;53.326;10.356;2023-03-31T10:33:17;4.60;;;2.20;;
7045;SDS011;3564;53.326;10.356;2023-03-31T10:35:49;5.57;;;2.07;;
7045;SDS011;3564;53.326;10.356;2023-03-31T10:38:30;3.60;;;1.80;;
7045;SDS011;3564;53.326;10.356;2023-03-31T10:41:00;6.53;;;2.40;;
7045;SDS011;3564;53.326;10.356;2023-03-31T10:43:33;5.20;;;2.10;;
7045;SDS011;3564;53.326;10.356;2023-03-31T10:46:04;3.73;;;1.97;;
7045;SDS011;3564;53.326;10.356;2023-03-31T10:48:31;6.27;;;2.10;;
7045;SDS011;3564;53.326;10.356;2023-03-31T10:51:09;5.33;;;2.50;;
7045;SDS011;3564;53.326;10.356;2023-03-31T10:53:46;2.70;;;1.83;;
7045;SDS011;3564;53.326;10.356;2023-03-31T11:04:28;3.77;;;1.80;;
7045;SDS011;3564;53.326;10.356;2023-03-31T11:07:24;4.17;;;2.17;;
7045;SDS011;3564;53.326;10.356;2023-03-31T11:10:08;2.87;;;1.63;;
7045;SDS011;3564;53.326;10.356;2023-03-31T11:35:17;4.07;;;2.20;;
7045;SDS011;3564;53.326;10.356;2023-03-31T11:39:01;3.70;;;1.70;;
7045;SDS011;3564;53.326;10.356;2023-03-31T11:43:55;4.67;;;1.90;;
7045;SDS011;3564;53.326;10.356;2023-03-31T11:49:37;2.33;;;1.73;;
7045;SDS011;3564;53.326;10.356;2023-03-31T11:52:16;3.00;;;1.67;;
7045;SDS011;3564;53.326;10.356;2023-03-31T11:54:51;4.87;;;1.70;;
7045;SDS011;3564;53.326;10.356;2023-03-31T11:59:56;3.57;;;1.90;;
7045;SDS011;3564;53.326;10.356;2023-03-31T12:05:24;4.60;;;1.80;;
7045;SDS011;3564;53.326;10.356;2023-03-31T12:10:53;3.50;;;1.90;;
7045;SDS011;3564;53.326;10.356;2023-03-31T12:21:26;7.20;;;1.93;;
7045;SDS011;3564;53.326;10.356;2023-03-31T12:23:55;3.80;;;2.07;;
7045;SDS011;3564;53.326;10.356;2023-03-31T12:29:10;3.50;;;2.00;;
7045;SDS011;3564;53.326;10.356;2023-03-31T12:32:00;3.33;;;2.07;;
7045;SDS011;3564;53.326;10.356;2023-03-31T12:34:29;3.20;;;1.73;;
7045;SDS011;3564;53.326;10.356;2023-03-31T12:39:27;4.07;;;2.07;;
7045;SDS011;3564;53.326;10.356;2023-03-31T12:42:24;3.80;;;2.03;;
7045;SDS011;3564;53.326;10.356;2023-03-31T12:50:40;7.60;;;2.13;;
7045;SDS011;3564;53.326;10.356;2023-03-31T12:55:36;3.87;;;1.97;;
7045;SDS011;3564;53.326;10.356;2023-03-31T13:08:53;2.73;;;1.60;;
7045;SDS011;3564;53.326;10.356;2023-03-31T13:14:05;2.93;;;1.60;;
7045;SDS011;3564;53.326;10.356;2023-03-31T13:16:40;1.80;;;1.40;;
7045;SDS011;3564;53.326;10.356;2023-03-31T13:19:06;4.13;;;1.93;;
7045;SDS011;3564;53.326;10.356;2023-03-31T13:21:53;2.77;;;1.50;;
7045;SDS011;3564;53.326;10.356;2023-03-31T13:24:20;2.47;;;1.30;;
7045;SDS011;3564;53.326;10.356;2023-03-31T13:26:48;3.53;;;1.53;;
7045;SDS011;3564;53.326;10.356;2023-03-31T13:29:22;2.67;;;1.77;;
7045;SDS011;3564;53.326;10.356;2023-03-31T13:34:27;1.67;;;1.20;;
7045;SDS011;3564;53.326;10.356;2023-03-31T13:45:46;1.40;;;1.20;;
7045;SDS011;3564;53.326;10.356;2023-03-31T13:57:16;3.63;;;1.57;;
7045;SDS011;3564;53.326;10.356;2023-03-31T14:00:38;1.43;;;1.33;;
7045;SDS011;3564;53.326;10.356;2023-03-31T14:03:22;3.20;;;1.63;;
7045;SDS011;3564;53.326;10.356;2023-03-31T14:08:35;2.00;;;1.30;;
7045;SDS011;3564;53.326;10.356;2023-03-31T14:11:23;1.30;;;1.20;;
7045;SDS011;3564;53.326;10.356;2023-03-31T14:16:47;1.53;;;1.30;;
7045;SDS011;3564;53.326;10.356;2023-03-31T14:19:35;1.30;;;1.20;;
7045;SDS011;3564;53.326;10.356;2023-03-31T14:22:21;1.57;;;1.20;;
7045;SDS011;3564;53.326;10.356;2023-03-31T14:24:57;2.90;;;1.60;;
7045;SDS011;3564;53.326;10.356;2023-03-31T14:27:58;1.33;;;1.23;;
7045;SDS011;3564;53.326;10.356;2023-03-31T14:33:33;1.57;;;1.40;;
7045;SDS011;3564;53.326;10.356;2023-03-31T14:39:06;1.10;;;1.00;;
7045;SDS011;3564;53.326;10.356;2023-03-31T14:41:35;1.20;;;1.10;;
7045;SDS011;3564;53.326;10.356;2023-03-31T14:44:02;1.30;;;1.20;;
7045;SDS011;3564;53.326;10.356;2023-03-31T14:46:30;1.47;;;1.13;;
7045;SDS011;3564;53.326;10.356;2023-03-31T14:49:05;2.17;;;1.17;;
7045;SDS011;3564;53.326;10.356;2023-03-31T14:51:52;2.20;;;1.20;;
7045;SDS011;3564;53.326;10.356;2023-03-31T14:54:19;1.10;;;1.00;;
7045;SDS011;3564;53.326;10.356;2023-03-31T14:56:55;2.10;;;1.27;;
7045;SDS011;3564;53.326;10.356;2023-03-31T14:59:27;2.13;;;1.20;;
7045;SDS011;3564;53.326;10.356;2023-03-31T15:01:58;1.30;;;1.20;;
7045;SDS011;3564;53.326;10.356;2023-03-31T15:04:27;2.50;;;1.00;;
7045;SDS011;3564;53.326;10.356;2023-03-31T15:06:54;3.50;;;1.40;;
7045;SDS011;3564;53.326;10.356;2023-03-31T15:09:26;1.30;;;1.10;;
7045;SDS011;3564;53.326;10.356;2023-03-31T15:11:55;1.93;;;1.17;;
7045;SDS011;3564;53.326;10.356;2023-03-31T15:14:29;1.53;;;1.17;;
7045;SDS011;3564;53.326;10.356;2023-03-31T15:16:58;1.20;;;1.00;;
7045;SDS011;3564;53.326;10.356;2023-03-31T15:19:33;1.27;;;1.17;;
7045;SDS011;3564;53.326;10.356;2023-03-31T15:22:15;1.57;;;1.37;;
7045;SDS011;3564;53.326;10.356;2023-03-31T15:24:45;1.77;;;1.13;;
7045;SDS011;3564;53.326;10.356;2023-03-31T15:27:31;1.90;;;1.00;;
7045;SDS011;3564;53.326;10.356;2023-03-31T15:30:19;1.90;;;1.10;;
7045;SDS011;3564;53.326;10.356;2023-03-31T15:32:47;1.10;;;1.00;;
7045;SDS011;3564;53.326;10.356;2023-03-31T15:37:55;3.40;;;2.00;;
7045;SDS011;3564;53.326;10.356;2023-03-31T15:40:44;3.57;;;2.77;;
7045;SDS011;3564;53.326;10.356;2023-03-31T15:43:26;3.83;;;2.00;;
7045;SDS011;3564;53.326;10.356;2023-03-31T15:45:59;1.63;;;1.53;;
7045;SDS011;3564;53.326;10.356;2023-03-31T15:48:32;1.77;;;1.17;;
7045;SDS011;3564;53.326;10.356;2023-03-31T15:51:00;1.53;;;1.17;;
7045;SDS011;3564;53.326;10.356;2023-03-31T15:53:37;2.87;;;2.53;;
7045;SDS011;3564;53.326;10.356;2023-03-31T15:56:27;40.67;;;30.83;;
7045;SDS011;3564;53.326;10.356;2023-03-31T15:59:00;7.10;;;4.17;;
7045;SDS011;3564;53.326;10.356;2023-03-31T16:01:29;1.70;;;1.40;;
7045;SDS011;3564;53.326;10.356;2023-03-31T16:03:57;1.47;;;1.17;;
7045;SDS011;3564;53.326;10.356;2023-03-31T16:09:05;2.30;;;1.20;;
7045;SDS011;3564;53.326;10.356;2023-03-31T16:11:37;24.67;;;20.97;;
7045;SDS011;3564;53.326;10.356;2023-03-31T16:14:27;29.80;;;22.23;;
7045;SDS011;3564;53.326;10.356;2023-03-31T16:17:10;5.53;;;4.27;;
7045;SDS011;3564;53.326;10.356;2023-03-31T16:19:48;2.40;;;1.43;;
7045;SDS011;3564;53.326;10.356;2023-03-31T16:22:20;1.37;;;1.20;;
7045;SDS011;3564;53.326;10.356;2023-03-31T16:24:48;1.30;;;1.20;;
7045;SDS011;3564;53.326;10.356;2023-03-31T16:27:14;2.87;;;1.30;;
7045;SDS011;3564;53.326;10.356;2023-03-31T16:29:40;2.43;;;1.20;;
7045;SDS011;3564;53.326;10.356;2023-03-31T16:32:10;1.47;;;1.30;;
7045;SDS011;3564;53.326;10.356;2023-03-31T16:35:00;1.50;;;1.30;;
7045;SDS011;3564;53.326;10.356;2023-03-31T16:37:28;2.03;;;1.20;;
7045;SDS011;3564;53.326;10.356;2023-03-31T16:39:53;2.43;;;1.50;;
7045;SDS011;3564;53.326;10.356;2023-03-31T16:42:20;1.47;;;0.90;;
7045;SDS011;3564;53.326;10.356;2023-03-31T16:44:47;2.53;;;1.10;;
7045;SDS011;3564;53.326;10.356;2023-03-31T16:47:13;1.20;;;1.10;;
7045;SDS011;3564;53.326;10.356;2023-03-31T16:49:38;1.30;;;1.20;;
7045;SDS011;3564;53.326;10.356;2023-03-31T16:52:04;3.13;;;1.37;;
7045;SDS011;3564;53.326;10.356;2023-03-31T16:54:30;1.53;;;1.23;;
7045;SDS011;3564;53.326;10.356;2023-03-31T16:56:56;2.30;;;1.20;;
7045;SDS011;3564;53.326;10.356;2023-03-31T16:59:22;2.63;;;1.37;;
7045;SDS011;3564;53.326;10.356;2023-03-31T17:01:49;2.13;;;1.30;;
7045;SDS011;3564;53.326;10.356;2023-03-31T17:04:16;1.40;;;1.30;;
7045;SDS011;3564;53.326;10.356;2023-03-31T17:06:42;2.93;;;1.30;;
7045;SDS011;3564;53.326;10.356;2023-03-31T17:09:08;3.10;;;1.50;;
7045;SDS011;3564;53.326;10.356;2023-03-31T17:11:34;4.63;;;1.53;;
7045;SDS011;3564;53.326;10.356;2023-03-31T17:14:00;2.83;;;1.53;;
7045;SDS011;3564;53.326;10.356;2023-03-31T17:16:26;5.10;;;1.47;;
7045;SDS011;3564;53.326;10.356;2023-03-31T17:18:52;2.83;;;1.80;;
7045;SDS011;3564;53.326;10.356;2023-03-31T17:21:19;3.60;;;1.47;;
7045;SDS011;3564;53.326;10.356;2023-03-31T17:23:45;3.17;;;1.50;;
7045;SDS011;3564;53.326;10.356;2023-03-31T17:26:12;1.87;;;1.23;;
7045;SDS011;3564;53.326;10.356;2023-03-31T17:28:38;2.07;;;1.30;;
7045;SDS011;3564;53.326;10.356;2023-03-31T17:31:14;3.03;;;1.53;;
7045;SDS011;3564;53.326;10.356;2023-03-31T17:33:44;2.97;;;1.40;;
7045;SDS011;3564;53.326;10.356;2023-03-31T17:36:10;2.47;;;1.53;;
7045;SDS011;3564;53.326;10.356;2023-03-31T17:38:36;3.37;;;1.50;;
7045;SDS011;3564;53.326;10.356;2023-03-31T17:41:06;3.37;;;2.07;;
7045;SDS011;3564;53.326;10.356;2023-03-31T17:43:33;4.23;;;1.60;;
7045;SDS011;3564;53.326;10.356;2023-03-31T17:46:03;2.60;;;1.93;;
7045;SDS011;3564;53.326;10.356;2023-03-31T17:48:31;2.47;;;1.67;;
7045;SDS011;3564;53.326;10.356;2023-03-31T17:51:05;2.87;;;1.70;;
7045;SDS011;3564;53.326;10.356;2023-03-31T17:53:32;4.30;;;1.83;;
7045;SDS011;3564;53.326;10.356;2023-03-31T17:55:58;4.30;;;1.90;;
7045;SDS011;3564;53.326;10.356;2023-03-31T17:58:26;2.47;;;1.80;;
7045;SDS011;3564;53.326;10.356;2023-03-31T18:00:52;2.97;;;1.90;;
7045;SDS011;3564;53.326;10.356;2023-03-31T18:03:18;5.43;;;2.00;;
7045;SDS011;3564;53.326;10.356;2023-03-31T18:05:44;3.47;;;1.90;;
7045;SDS011;3564;53.326;10.356;2023-03-31T18:08:10;3.40;;;1.90;;
7045;SDS011;3564;53.326;10.356;2023-03-31T18:10:36;3.50;;;2.20;;
7045;SDS011;3564;53.326;10.356;2023-03-31T18:13:02;2.90;;;1.53;;
7045;SDS011;3564;53.326;10.356;2023-03-31T18:15:28;2.60;;;1.80;;
7045;SDS011;3564;53.326;10.356;2023-03-31T18:17:53;3.47;;;1.70;;